Home   Weather   Myanmar   Yangon   Past weeks
Flag for Myanmar

Past Weather in Yangon, Myanmar — Yesterday and Last 2 Weeks

Currently: 81 °F. Clear. (Weather station: Rangoon Airport, Myanmar). See more current weather

Past Weather in Yangon — Graph

°F

Yangon Temperature Yesterday

Maximum temperature yesterday: 100 °F (at 3:00 pm)
Minimum temperature yesterday: 79 °F (at 5:00 am)
Average temperature yesterday: 89 °F

High & Low Weather Summary for the Past Weeks

 TemperatureHumidityPressure
High100 °F (May 5, 3:00 pm)100% (Apr 28, 6:00 am)29.92 "Hg (Apr 28, 6:00 am)
Low73 °F (Apr 28, 6:00 am)42% (May 4, 2:30 pm)29.62 "Hg (Apr 23, 3:30 pm)
Average86 °F74%29.77 "Hg
* Reported Apr 21 5:30 am — May 6 5:30 am, Yangon. Weather by CustomWeather, © 2021

Note: Actual official high and low records may vary slightly from our data, if they occured in-between our weather recording intervals... More about our weather records

Yangon Weather History for the Previous 24 Hours

Scroll right to see more
 ConditionsComfort  
Time TempWeatherWind HumidityBarometerVisibility
5:30 am
Thu, May 6
82 °FClear.2 mph84%29.80 "Hg4 mi
5:00 am82 °FClear.2 mph84%29.77 "Hg4 mi
4:30 am82 °FPassing clouds.3 mph84%29.77 "Hg4 mi
4:00 am82 °FPassing clouds.2 mph84%29.77 "Hg4 mi
3:30 am82 °FPassing clouds.3 mph84%29.74 "Hg4 mi
3:00 am82 °FPassing clouds.5 mph84%29.74 "Hg4 mi
2:30 am82 °FPassing clouds.3 mph84%29.74 "Hg4 mi
2:00 am82 °FPassing clouds.5 mph84%29.74 "Hg4 mi
1:30 am82 °FPassing clouds.5 mph84%29.77 "Hg4 mi
1:00 am84 °FPassing clouds.6 mph74%29.77 "Hg4 mi
12:30 am84 °FClear.5 mph74%29.77 "Hg4 mi
12:00 am84 °FClear.7 mph74%29.80 "Hg4 mi
11:30 pm
Wed, May 5
84 °FClear.8 mph74%29.77 "Hg4 mi
11:00 pm86 °FClear.8 mph75%29.77 "Hg4 mi
10:30 pm86 °FClear.7 mph75%29.77 "Hg4 mi
10:00 pm86 °FClear.9 mph75%29.77 "Hg4 mi
9:30 pm88 °FClear.8 mph66%29.74 "Hg4 mi
9:00 pm88 °FClear.10 mph66%29.74 "Hg4 mi
8:30 pm91 °FPassing clouds.9 mph59%29.74 "Hg4 mi
8:00 pm91 °FPassing clouds.8 mph59%29.71 "Hg4 mi
7:30 pm93 °FPassing clouds.10 mph56%29.71 "Hg4 mi
7:00 pm93 °FPassing clouds.6 mph56%29.68 "Hg4 mi
6:30 pm95 °FPassing clouds.5 mph53%29.68 "Hg4 mi
6:00 pm95 °FPassing clouds.5 mph53%29.65 "Hg4 mi
5:30 pm95 °FPassing clouds.5 mph53%29.65 "Hg4 mi
5:00 pm97 °FPassing clouds.5 mph53%29.65 "Hg4 mi
4:30 pm99 °FPassing clouds.6 mph50%29.65 "Hg5 mi
4:00 pm99 °FPassing clouds.6 mph50%29.65 "Hg5 mi
3:30 pm100 °FPassing clouds.6 mph45%29.65 "Hg5 mi
3:00 pm100 °FScattered clouds.5 mph45%29.65 "Hg5 mi
2:30 pm99 °FScattered clouds.3 mph50%29.68 "Hg5 mi
2:00 pm99 °FScattered clouds.6 mph50%29.68 "Hg5 mi
1:30 pm99 °FScattered clouds.2 mph50%29.71 "Hg5 mi
1:00 pm99 °FScattered clouds.3 mph50%29.74 "Hg6 mi
12:30 pm99 °FPassing clouds.8 mph50%29.74 "Hg6 mi
12:00 pm99 °FPassing clouds.3 mph50%29.77 "Hg6 mi
11:30 am95 °FPassing clouds.8 mph53%29.77 "Hg6 mi
11:00 am95 °FPassing clouds.3 mph53%29.80 "Hg6 mi
10:30 am95 °FPassing clouds.5 mph53%29.80 "Hg6 mi
10:00 am93 °FPassing clouds.2 mph56%29.80 "Hg6 mi
9:30 am90 °FPassing clouds.6 mph67%29.83 "Hg5 mi
9:00 am86 °FPassing clouds.5 mph70%29.83 "Hg4 mi
8:30 am84 °FPassing clouds.5 mph70%29.80 "Hg4 mi
8:00 am82 °FPassing clouds.6 mph74%29.80 "Hg4 mi
7:00 am81 °FPassing clouds.3 mph84%29.77 "Hg4 mi
6:30 am79 °FPassing clouds.2 mph94%29.77 "Hg4 mi
6:00 am79 °FPassing clouds.5 mph84%29.77 "Hg4 mi
Weather by CustomWeather, © 2021

See weather overview